Flight Track Log - Related Links

Times and Time Zones

All times are in EDT time to prevent confusion due to time zone crossing. See the BJS542 flight status page for this flight to view local times or setup timezone preferences in your user account.

Time Position Orientation Groundspeed Altitude Reporting Facility
EDT Latitude Longitude Course Direction KTS MPH feet Rate Location/Type
Fri 05:50:38 PM 43.1203 -77.6961 260° West 154 177 1,500  Level Cleveland Center
Fri 05:52:56 PM 43.0975 -77.8792 260° West 249 287 9,000 2,576 Climbing Cleveland Center
Fri 05:53:56 PM 43.0461 -77.9922 238° Southwest 325 374 10,000 1,450 Climbing Cleveland Center
Fri 05:54:56 PM 42.9919 -78.0883 232° Southwest 330 380 11,900 2,900 Climbing Cleveland Center
Fri 05:55:56 PM 42.9397 -78.1839 233° Southwest 323 372 15,800 3,150 Climbing Cleveland Center
Fri 05:56:56 PM 42.8528 -78.2183 196° South 314 361 18,200 2,400 Climbing Cleveland Center
Fri 05:57:56 PM 42.7442 -78.2056 175° South 324 373 20,600 2,050 Climbing Cleveland Center
Fri 05:58:56 PM 42.6272 -78.1958 176° South 370 426 22,300 1,200 Climbing Cleveland Center
Fri 05:59:56 PM 42.5122 -78.1775 173° South 411 473 23,000 1,300 Climbing Cleveland Center
Fri 06:00:56 PM 42.3933 -78.1653 176° South 426 490 24,900 1,850 Climbing Cleveland Center
Fri 06:01:56 PM 42.2761 -78.1531 176° South 426 490 26,700 1,050 Climbing Cleveland Center
Fri 06:02:56 PM 42.1550 -78.1378 175° South 426 490 27,000 150 Climbing Cleveland Center
Fri 06:03:56 PM 42.0294 -78.1231 175° South 441 507 27,000  Level Cleveland Center
Fri 06:04:56 PM 41.9042 -78.1111 176° South 452 520 27,000  Level Cleveland Center
Fri 06:05:56 PM 41.7786 -78.0911 173° South 452 520 27,000  Level Cleveland Center
Fri 06:06:56 PM 41.6533 -78.0792 176° South 457 526 27,000  Level Cleveland Center
Fri 06:07:56 PM 41.5300 -78.0644 175° South 457 526 27,000 -50 Level Cleveland Center
Fri 06:08:56 PM 41.4067 -78.0500 175° South 457 526 26,900 -600 Descending Cleveland Center
Fri 06:09:36 PM 41.3364 -78.0411 175° South 437 503 26,000 -1,140 Descending New York Center
Fri 06:10:36 PM 41.2142 -78.0281 175° South 431 496 25,000 -500 Descending New York Center
Fri 06:11:36 PM 41.0964 -78.0128 174° South 431 496 25,000 -50 Level New York Center
Fri 06:12:36 PM 40.9783 -78.0003 175° South 431 496 24,900 -650 Descending New York Center
Fri 06:13:36 PM 40.8642 -77.9578 164° South 431 496 23,700 -1,200 Descending New York Center
Fri 06:14:36 PM 40.7575 -77.8919 155° Southeast 424 488 22,500 -1,200 Descending New York Center
Fri 06:15:36 PM 40.6489 -77.8258 155° Southeast 429 494 21,300 -1,200 Descending New York Center
Fri 06:16:36 PM 40.5444 -77.7606 155° Southeast 434 499 20,100 -1,200 Descending New York Center
Fri 06:17:36 PM 40.4378 -77.6950 155° Southeast 429 494 18,900 -1,250 Descending New York Center
Fri 06:18:36 PM 40.3211 -77.6208 154° Southeast 429 494 17,600 -1,350 Descending New York Center
Fri 06:19:36 PM 40.2308 -77.5631 154° Southeast 419 482 16,200 -1,407 Descending New York Center
Fri 06:21:18 PM 40.0833 -77.4667 153° Southeast 387 445 13,800 -1,185 Descending Potomac TRACON
Fri 06:22:18 PM 39.9833 -77.4000 153° Southeast 379 436 13,000 -397 Descending Potomac TRACON
Fri 06:23:19 PM 39.8833 -77.3500 159° South 378 435 13,000  Level Potomac TRACON
Fri 06:24:19 PM 39.7833 -77.2833 153° Southeast 380 437 13,000 8,667 Level Potomac TRACON
Fri 06:25:25 PM 39.6667 -77.2833 180° South 378 435 31,200 -1,429 Climbing Potomac TRACON
Fri 06:26:25 PM 39.5833 -77.3500 212° Southwest 343 395 10,000 -10,900 Descending Potomac TRACON
Fri 06:27:25 PM 39.5000 -77.4000 205° Southwest 300 345 9,400 -1,200 Descending Potomac TRACON
Fri 06:28:25 PM 39.4333 -77.4500 210° Southwest 281 323 7,600 -1,895 Descending Potomac TRACON
Fri 06:29:19 PM 39.3667 -77.4500 180° South 280 322 5,800 -1,789 Descending Potomac TRACON
Fri 06:30:19 PM 39.3000 -77.4333 169° South 271 312 4,200 -857 Descending Potomac TRACON
Fri 06:31:25 PM 39.2167 -77.4333 180° South 264 304 4,000 -95 Descending Potomac TRACON
Fri 06:32:25 PM 39.1500 -77.4333 180° South 243 280 4,000 -545 Level Potomac TRACON
Fri 06:33:26 PM 39.0833 -77.4333 180° South 225 259 2,900 -1,190 Descending Potomac TRACON
Fri 06:34:26 PM 39.0167 -77.4333 180° South 223 257 1,600 -1,100 Descending Potomac TRACON
Fri 06:35:26 PM 38.9833 -77.4333 180° South 148 170 700 -900 Descending Potomac TRACON
Fri 06:37:00 PM 38.9474 -77.4599 90° East  Level Estimated
Fri 06:44:00 PM 38.9474 -77.4599 90° East  Level Estimated
Fri 06:45:00 PM 38.9474 -77.4599 90° East  Level Estimated
Fri 06:46:00 PM 38.9474 -77.4599 90° East  Level Estimated
Fri 06:47:00 PM 38.9474 -77.4599 90° East  Level Estimated
Fri 06:48:00 PM 38.9474 -77.4599 90° East  Level Estimated
Fri 06:49:00 PM 38.9474 -77.4599 90° East  Level Estimated

Login

Don't have an account? Register now (free) for customized features, flight alerts, and more!